sensor_id;sensor_type;location;lat;lon;timestamp;temperature;humidity
913;DHT22;443;51.448;7.028;2023-06-22T00:02:01;21.80;76.70
913;DHT22;443;51.448;7.028;2023-06-22T00:04:28;21.80;76.90
913;DHT22;443;51.448;7.028;2023-06-22T00:06:55;21.80;76.80
913;DHT22;443;51.448;7.028;2023-06-22T00:09:21;21.80;76.70
913;DHT22;443;51.448;7.028;2023-06-22T00:11:48;21.80;76.80
913;DHT22;443;51.448;7.028;2023-06-22T00:14:15;21.80;76.80
913;DHT22;443;51.448;7.028;2023-06-22T00:16:43;21.80;76.90
913;DHT22;443;51.448;7.028;2023-06-22T00:19:14;21.80;77.00
913;DHT22;443;51.448;7.028;2023-06-22T00:21:41;21.80;76.90
913;DHT22;443;51.448;7.028;2023-06-22T00:24:08;21.80;76.80
913;DHT22;443;51.448;7.028;2023-06-22T00:26:35;21.80;76.80
913;DHT22;443;51.448;7.028;2023-06-22T00:29:02;21.80;76.80
913;DHT22;443;51.448;7.028;2023-06-22T00:31:28;21.80;76.90
913;DHT22;443;51.448;7.028;2023-06-22T00:33:56;21.80;77.00
913;DHT22;443;51.448;7.028;2023-06-22T00:36:23;21.80;76.90
913;DHT22;443;51.448;7.028;2023-06-22T00:38:50;21.80;76.90
913;DHT22;443;51.448;7.028;2023-06-22T00:41:17;21.80;76.90
913;DHT22;443;51.448;7.028;2023-06-22T00:43:44;21.80;77.00
913;DHT22;443;51.448;7.028;2023-06-22T00:46:11;21.80;77.10
913;DHT22;443;51.448;7.028;2023-06-22T00:48:38;21.80;77.00
913;DHT22;443;51.448;7.028;2023-06-22T00:51:08;21.80;77.00
913;DHT22;443;51.448;7.028;2023-06-22T00:53:35;21.80;76.90
913;DHT22;443;51.448;7.028;2023-06-22T00:56:04;21.80;77.00
913;DHT22;443;51.448;7.028;2023-06-22T00:58:32;21.80;77.00
913;DHT22;443;51.448;7.028;2023-06-22T01:00:58;21.80;77.00
913;DHT22;443;51.448;7.028;2023-06-22T01:03:26;21.80;77.20
913;DHT22;443;51.448;7.028;2023-06-22T01:05:56;21.80;77.10
913;DHT22;443;51.448;7.028;2023-06-22T01:08:31;21.80;77.10
913;DHT22;443;51.448;7.028;2023-06-22T01:11:08;21.80;77.00
913;DHT22;443;51.448;7.028;2023-06-22T01:13:47;21.80;77.20
913;DHT22;443;51.448;7.028;2023-06-22T01:16:17;21.80;77.00
913;DHT22;443;51.448;7.028;2023-06-22T01:18:44;21.80;77.00
913;DHT22;443;51.448;7.028;2023-06-22T01:21:16;21.80;77.00
913;DHT22;443;51.448;7.028;2023-06-22T01:23:55;21.80;76.90
913;DHT22;443;51.448;7.028;2023-06-22T01:26:35;21.70;77.00
913;DHT22;443;51.448;7.028;2023-06-22T01:29:04;21.70;77.00
913;DHT22;443;51.448;7.028;2023-06-22T01:31:33;21.70;77.20
913;DHT22;443;51.448;7.028;2023-06-22T01:34:03;21.70;77.00
913;DHT22;443;51.448;7.028;2023-06-22T01:36:32;21.70;77.10
913;DHT22;443;51.448;7.028;2023-06-22T01:39:00;21.80;77.30
913;DHT22;443;51.448;7.028;2023-06-22T01:41:28;21.70;77.90
913;DHT22;443;51.448;7.028;2023-06-22T01:43:56;21.70;77.20
913;DHT22;443;51.448;7.028;2023-06-22T01:46:24;21.70;77.20
913;DHT22;443;51.448;7.028;2023-06-22T01:48:51;21.80;77.20
913;DHT22;443;51.448;7.028;2023-06-22T01:51:19;21.70;77.10
913;DHT22;443;51.448;7.028;2023-06-22T01:53:46;21.70;77.20
913;DHT22;443;51.448;7.028;2023-06-22T01:56:14;21.70;77.20
913;DHT22;443;51.448;7.028;2023-06-22T01:58:46;21.70;77.20
913;DHT22;443;51.448;7.028;2023-06-22T02:01:20;21.70;77.20
913;DHT22;443;51.448;7.028;2023-06-22T02:06:37;21.70;77.50
913;DHT22;443;51.448;7.028;2023-06-22T02:09:08;21.70;77.40
913;DHT22;443;51.448;7.028;2023-06-22T02:11:37;21.70;77.30
913;DHT22;443;51.448;7.028;2023-06-22T02:14:05;21.70;77.40
913;DHT22;443;51.448;7.028;2023-06-22T02:16:33;21.70;77.30
913;DHT22;443;51.448;7.028;2023-06-22T02:19:03;21.70;77.40
913;DHT22;443;51.448;7.028;2023-06-22T02:21:30;21.70;77.50
913;DHT22;443;51.448;7.028;2023-06-22T02:23:57;21.70;77.70
913;DHT22;443;51.448;7.028;2023-06-22T02:26:25;21.70;77.50
913;DHT22;443;51.448;7.028;2023-06-22T02:28:52;21.70;77.50
913;DHT22;443;51.448;7.028;2023-06-22T02:31:18;21.70;77.50
913;DHT22;443;51.448;7.028;2023-06-22T02:33:45;21.70;77.60
913;DHT22;443;51.448;7.028;2023-06-22T02:36:15;21.70;77.60
913;DHT22;443;51.448;7.028;2023-06-22T02:38:42;21.70;77.70
913;DHT22;443;51.448;7.028;2023-06-22T02:41:13;21.70;77.70
913;DHT22;443;51.448;7.028;2023-06-22T02:43:43;21.70;77.50
913;DHT22;443;51.448;7.028;2023-06-22T02:46:11;21.70;77.60
913;DHT22;443;51.448;7.028;2023-06-22T02:48:38;21.70;77.50
913;DHT22;443;51.448;7.028;2023-06-22T02:51:05;21.70;77.70
913;DHT22;443;51.448;7.028;2023-06-22T02:53:33;21.70;77.70
913;DHT22;443;51.448;7.028;2023-06-22T02:56:01;21.70;77.70
913;DHT22;443;51.448;7.028;2023-06-22T02:58:28;21.70;77.70
913;DHT22;443;51.448;7.028;2023-06-22T03:00:55;21.70;77.70
913;DHT22;443;51.448;7.028;2023-06-22T03:03:22;21.70;77.80
913;DHT22;443;51.448;7.028;2023-06-22T03:05:51;21.70;77.80
913;DHT22;443;51.448;7.028;2023-06-22T03:08:18;21.70;77.70
913;DHT22;443;51.448;7.028;2023-06-22T03:10:46;21.70;77.80
913;DHT22;443;51.448;7.028;2023-06-22T03:13:13;21.70;77.80
913;DHT22;443;51.448;7.028;2023-06-22T03:15:40;21.70;77.90
913;DHT22;443;51.448;7.028;2023-06-22T03:18:06;21.60;77.70
913;DHT22;443;51.448;7.028;2023-06-22T03:20:33;21.60;77.70
913;DHT22;443;51.448;7.028;2023-06-22T03:23:00;21.70;77.90
913;DHT22;443;51.448;7.028;2023-06-22T03:25:27;21.70;77.80
913;DHT22;443;51.448;7.028;2023-06-22T03:27:55;21.60;77.80
913;DHT22;443;51.448;7.028;2023-06-22T03:30:21;21.60;77.70
913;DHT22;443;51.448;7.028;2023-06-22T03:32:48;21.60;77.60
913;DHT22;443;51.448;7.028;2023-06-22T03:35:15;21.60;77.90
913;DHT22;443;51.448;7.028;2023-06-22T03:37:42;21.60;77.80
913;DHT22;443;51.448;7.028;2023-06-22T03:40:09;21.60;78.60
913;DHT22;443;51.448;7.028;2023-06-22T03:42:36;21.70;78.00
913;DHT22;443;51.448;7.028;2023-06-22T03:45:06;21.60;77.60
913;DHT22;443;51.448;7.028;2023-06-22T03:47:33;21.60;77.90
913;DHT22;443;51.448;7.028;2023-06-22T03:49:59;21.60;77.70
913;DHT22;443;51.448;7.028;2023-06-22T03:52:29;21.60;77.70
913;DHT22;443;51.448;7.028;2023-06-22T03:54:55;21.60;77.60
913;DHT22;443;51.448;7.028;2023-06-22T03:57:22;21.60;77.40
913;DHT22;443;51.448;7.028;2023-06-22T03:59:49;21.60;77.90
913;DHT22;443;51.448;7.028;2023-06-22T04:02:17;21.60;78.00
913;DHT22;443;51.448;7.028;2023-06-22T04:04:44;21.60;78.00
913;DHT22;443;51.448;7.028;2023-06-22T04:07:11;21.60;78.00
913;DHT22;443;51.448;7.028;2023-06-22T04:09:37;21.60;78.10
913;DHT22;443;51.448;7.028;2023-06-22T04:12:05;21.60;78.10
913;DHT22;443;51.448;7.028;2023-06-22T04:14:32;21.60;78.20
913;DHT22;443;51.448;7.028;2023-06-22T04:16:58;21.60;78.00
913;DHT22;443;51.448;7.028;2023-06-22T04:19:26;21.60;77.90
913;DHT22;443;51.448;7.028;2023-06-22T04:21:53;21.60;78.00
913;DHT22;443;51.448;7.028;2023-06-22T04:24:20;21.60;77.70
913;DHT22;443;51.448;7.028;2023-06-22T04:26:47;21.60;77.90
913;DHT22;443;51.448;7.028;2023-06-22T04:29:14;21.60;78.00
913;DHT22;443;51.448;7.028;2023-06-22T04:31:40;21.60;78.10
913;DHT22;443;51.448;7.028;2023-06-22T04:34:08;21.60;78.10
913;DHT22;443;51.448;7.028;2023-06-22T04:36:37;21.60;78.30
913;DHT22;443;51.448;7.028;2023-06-22T04:39:06;21.60;78.20
913;DHT22;443;51.448;7.028;2023-06-22T04:41:35;21.60;77.90
913;DHT22;443;51.448;7.028;2023-06-22T04:44:09;21.50;78.20
913;DHT22;443;51.448;7.028;2023-06-22T04:46:36;21.60;78.20
913;DHT22;443;51.448;7.028;2023-06-22T04:49:05;21.60;78.30
913;DHT22;443;51.448;7.028;2023-06-22T04:51:37;21.60;78.40
913;DHT22;443;51.448;7.028;2023-06-22T04:54:04;21.60;78.40
913;DHT22;443;51.448;7.028;2023-06-22T04:56:31;21.60;78.20
913;DHT22;443;51.448;7.028;2023-06-22T04:58:58;21.60;78.30
913;DHT22;443;51.448;7.028;2023-06-22T05:01:25;21.60;78.30
913;DHT22;443;51.448;7.028;2023-06-22T05:03:52;21.50;78.30
913;DHT22;443;51.448;7.028;2023-06-22T05:06:21;21.50;78.20
913;DHT22;443;51.448;7.028;2023-06-22T05:08:53;21.60;78.40
913;DHT22;443;51.448;7.028;2023-06-22T05:11:22;21.60;78.40
913;DHT22;443;51.448;7.028;2023-06-22T05:13:49;21.50;78.20
913;DHT22;443;51.448;7.028;2023-06-22T05:16:16;21.60;78.40
913;DHT22;443;51.448;7.028;2023-06-22T05:18:43;21.60;78.30
913;DHT22;443;51.448;7.028;2023-06-22T05:21:10;21.50;77.90
913;DHT22;443;51.448;7.028;2023-06-22T05:23:36;21.50;78.20
913;DHT22;443;51.448;7.028;2023-06-22T05:26:04;21.50;78.50
913;DHT22;443;51.448;7.028;2023-06-22T05:28:34;21.50;78.40
913;DHT22;443;51.448;7.028;2023-06-22T05:31:01;21.60;78.50
913;DHT22;443;51.448;7.028;2023-06-22T05:33:29;21.50;78.50
913;DHT22;443;51.448;7.028;2023-06-22T05:35:56;21.50;78.20
913;DHT22;443;51.448;7.028;2023-06-22T05:38:22;21.50;78.40
913;DHT22;443;51.448;7.028;2023-06-22T05:40:49;21.50;78.40
913;DHT22;443;51.448;7.028;2023-06-22T05:43:17;21.50;78.40
913;DHT22;443;51.448;7.028;2023-06-22T05:45:44;21.60;78.30
913;DHT22;443;51.448;7.028;2023-06-22T05:48:11;21.50;78.30
913;DHT22;443;51.448;7.028;2023-06-22T05:50:37;21.60;78.50
913;DHT22;443;51.448;7.028;2023-06-22T05:53:04;21.60;78.20
913;DHT22;443;51.448;7.028;2023-06-22T05:55:32;21.50;78.30
913;DHT22;443;51.448;7.028;2023-06-22T05:57:59;21.60;78.60
913;DHT22;443;51.448;7.028;2023-06-22T06:00:27;21.50;78.50
913;DHT22;443;51.448;7.028;2023-06-22T06:02:53;21.50;78.30
913;DHT22;443;51.448;7.028;2023-06-22T06:05:20;21.50;78.30
913;DHT22;443;51.448;7.028;2023-06-22T06:07:48;21.50;78.20
913;DHT22;443;51.448;7.028;2023-06-22T06:10:15;21.50;78.40
913;DHT22;443;51.448;7.028;2023-06-22T06:12:42;21.60;78.80
913;DHT22;443;51.448;7.028;2023-06-22T06:15:09;21.50;78.20
913;DHT22;443;51.448;7.028;2023-06-22T06:17:45;21.50;78.60
913;DHT22;443;51.448;7.028;2023-06-22T06:20:12;21.50;78.50
913;DHT22;443;51.448;7.028;2023-06-22T06:22:39;21.60;78.80
913;DHT22;443;51.448;7.028;2023-06-22T06:25:09;21.50;78.30
913;DHT22;443;51.448;7.028;2023-06-22T06:27:35;21.60;78.50
913;DHT22;443;51.448;7.028;2023-06-22T06:30:03;21.50;78.50
913;DHT22;443;51.448;7.028;2023-06-22T06:32:30;21.50;78.50
913;DHT22;443;51.448;7.028;2023-06-22T06:34:58;21.50;78.60
913;DHT22;443;51.448;7.028;2023-06-22T06:37:25;21.50;78.50
913;DHT22;443;51.448;7.028;2023-06-22T06:39:51;21.60;78.80
913;DHT22;443;51.448;7.028;2023-06-22T06:42:18;21.50;78.60
913;DHT22;443;51.448;7.028;2023-06-22T06:44:46;21.50;78.20
913;DHT22;443;51.448;7.028;2023-06-22T06:47:12;21.50;78.30
913;DHT22;443;51.448;7.028;2023-06-22T06:49:39;21.60;78.70
913;DHT22;443;51.448;7.028;2023-06-22T06:52:08;21.60;78.30
913;DHT22;443;51.448;7.028;2023-06-22T06:54:34;21.50;78.30
913;DHT22;443;51.448;7.028;2023-06-22T06:57:01;21.60;78.00
913;DHT22;443;51.448;7.028;2023-06-22T06:59:29;21.60;78.30
913;DHT22;443;51.448;7.028;2023-06-22T07:01:56;21.60;78.60
913;DHT22;443;51.448;7.028;2023-06-22T07:04:23;21.60;78.50
913;DHT22;443;51.448;7.028;2023-06-22T07:06:49;21.60;78.20
913;DHT22;443;51.448;7.028;2023-06-22T07:09:18;21.60;78.40
913;DHT22;443;51.448;7.028;2023-06-22T07:11:44;21.50;78.00
913;DHT22;443;51.448;7.028;2023-06-22T07:14:11;21.50;78.50
913;DHT22;443;51.448;7.028;2023-06-22T07:16:38;21.50;78.50
913;DHT22;443;51.448;7.028;2023-06-22T07:19:04;21.50;77.90
913;DHT22;443;51.448;7.028;2023-06-22T07:21:31;21.60;78.00
913;DHT22;443;51.448;7.028;2023-06-22T07:23:58;21.50;78.40
913;DHT22;443;51.448;7.028;2023-06-22T07:26:26;21.60;78.20
913;DHT22;443;51.448;7.028;2023-06-22T07:28:53;21.50;78.10
913;DHT22;443;51.448;7.028;2023-06-22T07:31:19;21.60;78.30
913;DHT22;443;51.448;7.028;2023-06-22T07:33:46;21.50;78.00
913;DHT22;443;51.448;7.028;2023-06-22T07:36:13;21.60;78.50
913;DHT22;443;51.448;7.028;2023-06-22T07:38:40;21.50;78.50
913;DHT22;443;51.448;7.028;2023-06-22T07:41:06;21.50;78.00
913;DHT22;443;51.448;7.028;2023-06-22T07:43:35;21.50;78.10
913;DHT22;443;51.448;7.028;2023-06-22T07:46:02;21.60;78.50
913;DHT22;443;51.448;7.028;2023-06-22T07:48:29;21.50;78.00
913;DHT22;443;51.448;7.028;2023-06-22T07:50:56;21.50;78.20
913;DHT22;443;51.448;7.028;2023-06-22T07:53:23;21.60;78.40
913;DHT22;443;51.448;7.028;2023-06-22T07:55:49;21.50;78.60
913;DHT22;443;51.448;7.028;2023-06-22T07:58:16;21.60;78.20
913;DHT22;443;51.448;7.028;2023-06-22T08:00:45;21.50;78.40
913;DHT22;443;51.448;7.028;2023-06-22T08:03:14;21.50;78.40
913;DHT22;443;51.448;7.028;2023-06-22T08:05:41;21.50;78.40
913;DHT22;443;51.448;7.028;2023-06-22T08:08:07;21.50;78.50
913;DHT22;443;51.448;7.028;2023-06-22T08:10:34;21.50;79.40
913;DHT22;443;51.448;7.028;2023-06-22T08:13:01;21.50;78.80
913;DHT22;443;51.448;7.028;2023-06-22T08:15:28;21.50;78.50
913;DHT22;443;51.448;7.028;2023-06-22T08:17:56;21.50;78.50
913;DHT22;443;51.448;7.028;2023-06-22T08:20:23;21.50;78.60
913;DHT22;443;51.448;7.028;2023-06-22T08:22:50;21.60;78.90
913;DHT22;443;51.448;7.028;2023-06-22T08:25:17;21.50;78.90
913;DHT22;443;51.448;7.028;2023-06-22T08:27:45;21.50;78.90
913;DHT22;443;51.448;7.028;2023-06-22T08:30:12;21.50;78.70
913;DHT22;443;51.448;7.028;2023-06-22T08:32:39;21.50;78.80
913;DHT22;443;51.448;7.028;2023-06-22T08:35:08;21.50;78.60
913;DHT22;443;51.448;7.028;2023-06-22T08:37:35;21.60;78.80
913;DHT22;443;51.448;7.028;2023-06-22T08:40:04;21.50;78.20
913;DHT22;443;51.448;7.028;2023-06-22T08:42:32;21.50;78.30
913;DHT22;443;51.448;7.028;2023-06-22T08:44:59;21.60;78.30
913;DHT22;443;51.448;7.028;2023-06-22T08:47:27;21.50;78.20
913;DHT22;443;51.448;7.028;2023-06-22T08:49:54;21.50;78.30
913;DHT22;443;51.448;7.028;2023-06-22T08:52:24;21.60;78.30
913;DHT22;443;51.448;7.028;2023-06-22T08:54:50;21.60;78.20
913;DHT22;443;51.448;7.028;2023-06-22T08:57:17;21.50;78.20
913;DHT22;443;51.448;7.028;2023-06-22T08:59:44;21.60;78.60
913;DHT22;443;51.448;7.028;2023-06-22T09:02:11;21.50;78.10
913;DHT22;443;51.448;7.028;2023-06-22T09:04:37;21.50;78.50
913;DHT22;443;51.448;7.028;2023-06-22T09:07:05;21.60;78.50
913;DHT22;443;51.448;7.028;2023-06-22T09:09:33;21.50;78.10
913;DHT22;443;51.448;7.028;2023-06-22T09:12:00;21.50;78.10
913;DHT22;443;51.448;7.028;2023-06-22T09:14:26;21.50;78.20
913;DHT22;443;51.448;7.028;2023-06-22T09:16:53;21.50;78.10
913;DHT22;443;51.448;7.028;2023-06-22T09:19:20;21.60;78.30
913;DHT22;443;51.448;7.028;2023-06-22T09:21:47;21.50;78.20
913;DHT22;443;51.448;7.028;2023-06-22T09:24:14;21.50;78.20
913;DHT22;443;51.448;7.028;2023-06-22T09:26:42;21.50;78.10
913;DHT22;443;51.448;7.028;2023-06-22T09:29:09;21.50;78.60
913;DHT22;443;51.448;7.028;2023-06-22T09:31:35;21.60;77.90
913;DHT22;443;51.448;7.028;2023-06-22T09:34:02;21.60;78.00
913;DHT22;443;51.448;7.028;2023-06-22T09:36:30;21.60;77.50
913;DHT22;443;51.448;7.028;2023-06-22T09:38:56;21.60;77.80
913;DHT22;443;51.448;7.028;2023-06-22T09:41:24;21.60;77.70
913;DHT22;443;51.448;7.028;2023-06-22T09:43:52;21.60;77.80
913;DHT22;443;51.448;7.028;2023-06-22T09:46:19;21.60;77.80
913;DHT22;443;51.448;7.028;2023-06-22T09:48:48;21.60;77.80
913;DHT22;443;51.448;7.028;2023-06-22T09:51:14;21.60;77.70
913;DHT22;443;51.448;7.028;2023-06-22T09:53:41;21.60;78.30
913;DHT22;443;51.448;7.028;2023-06-22T09:56:09;21.60;78.80
913;DHT22;443;51.448;7.028;2023-06-22T09:58:40;21.60;77.80
913;DHT22;443;51.448;7.028;2023-06-22T10:01:08;21.60;77.70
913;DHT22;443;51.448;7.028;2023-06-22T10:03:35;21.60;77.90
913;DHT22;443;51.448;7.028;2023-06-22T10:06:02;21.60;78.00
913;DHT22;443;51.448;7.028;2023-06-22T10:08:29;21.70;78.30
913;DHT22;443;51.448;7.028;2023-06-22T10:10:56;21.60;78.00
913;DHT22;443;51.448;7.028;2023-06-22T10:13:22;21.70;78.10
913;DHT22;443;51.448;7.028;2023-06-22T10:15:49;21.60;77.70
913;DHT22;443;51.448;7.028;2023-06-22T10:18:19;21.70;77.80
913;DHT22;443;51.448;7.028;2023-06-22T10:20:48;21.70;77.60
913;DHT22;443;51.448;7.028;2023-06-22T10:23:15;21.70;77.50
913;DHT22;443;51.448;7.028;2023-06-22T10:25:42;21.70;77.50
913;DHT22;443;51.448;7.028;2023-06-22T10:28:09;21.70;77.40
913;DHT22;443;51.448;7.028;2023-06-22T10:30:35;21.70;77.70
913;DHT22;443;51.448;7.028;2023-06-22T10:33:02;21.70;77.70
913;DHT22;443;51.448;7.028;2023-06-22T10:35:30;21.70;77.60
913;DHT22;443;51.448;7.028;2023-06-22T10:37:57;21.70;78.20
913;DHT22;443;51.448;7.028;2023-06-22T10:40:24;21.70;77.80
913;DHT22;443;51.448;7.028;2023-06-22T10:42:51;21.70;77.70
913;DHT22;443;51.448;7.028;2023-06-22T10:45:18;21.70;77.70
913;DHT22;443;51.448;7.028;2023-06-22T10:47:44;21.70;77.70
913;DHT22;443;51.448;7.028;2023-06-22T10:50:11;21.70;77.50
913;DHT22;443;51.448;7.028;2023-06-22T10:52:39;21.70;77.50
913;DHT22;443;51.448;7.028;2023-06-22T10:55:07;21.70;77.50
913;DHT22;443;51.448;7.028;2023-06-22T10:57:34;21.70;77.50
913;DHT22;443;51.448;7.028;2023-06-22T11:00:02;21.70;77.50
913;DHT22;443;51.448;7.028;2023-06-22T11:02:30;21.70;77.50
913;DHT22;443;51.448;7.028;2023-06-22T11:04:57;21.70;77.50
913;DHT22;443;51.448;7.028;2023-06-22T11:07:25;21.70;77.40
913;DHT22;443;51.448;7.028;2023-06-22T11:09:54;21.70;77.50
913;DHT22;443;51.448;7.028;2023-06-22T11:12:21;21.70;77.50
913;DHT22;443;51.448;7.028;2023-06-22T11:14:48;21.70;77.50
913;DHT22;443;51.448;7.028;2023-06-22T11:17:17;21.70;77.60
913;DHT22;443;51.448;7.028;2023-06-22T11:19:44;21.70;77.90
913;DHT22;443;51.448;7.028;2023-06-22T11:22:11;21.70;77.60
913;DHT22;443;51.448;7.028;2023-06-22T11:24:37;21.70;77.70
913;DHT22;443;51.448;7.028;2023-06-22T11:27:06;21.70;77.60
913;DHT22;443;51.448;7.028;2023-06-22T11:29:33;21.70;77.70
913;DHT22;443;51.448;7.028;2023-06-22T11:32:00;21.70;77.70
913;DHT22;443;51.448;7.028;2023-06-22T11:34:26;21.70;77.70
913;DHT22;443;51.448;7.028;2023-06-22T11:36:53;21.70;77.70
913;DHT22;443;51.448;7.028;2023-06-22T11:39:20;21.70;77.70
913;DHT22;443;51.448;7.028;2023-06-22T11:41:47;21.70;77.80
913;DHT22;443;51.448;7.028;2023-06-22T11:44:15;21.70;77.80
913;DHT22;443;51.448;7.028;2023-06-22T11:46:42;21.70;77.70
913;DHT22;443;51.448;7.028;2023-06-22T11:49:08;21.70;77.70
913;DHT22;443;51.448;7.028;2023-06-22T11:51:35;21.70;77.70
913;DHT22;443;51.448;7.028;2023-06-22T11:54:02;21.70;77.70
913;DHT22;443;51.448;7.028;2023-06-22T11:56:29;21.70;77.80
913;DHT22;443;51.448;7.028;2023-06-22T11:58:55;21.70;77.80
913;DHT22;443;51.448;7.028;2023-06-22T12:01:23;21.70;77.80
913;DHT22;443;51.448;7.028;2023-06-22T12:03:50;21.60;77.80
913;DHT22;443;51.448;7.028;2023-06-22T12:06:17;21.70;77.90
913;DHT22;443;51.448;7.028;2023-06-22T12:08:44;21.60;77.80
913;DHT22;443;51.448;7.028;2023-06-22T12:11:10;21.70;77.90
913;DHT22;443;51.448;7.028;2023-06-22T12:13:37;21.70;77.80
913;DHT22;443;51.448;7.028;2023-06-22T12:16:04;21.70;77.80
913;DHT22;443;51.448;7.028;2023-06-22T12:18:33;21.70;77.70
913;DHT22;443;51.448;7.028;2023-06-22T12:20:59;21.70;77.90
913;DHT22;443;51.448;7.028;2023-06-22T12:23:26;21.70;78.50
913;DHT22;443;51.448;7.028;2023-06-22T12:25:53;21.60;77.90
913;DHT22;443;51.448;7.028;2023-06-22T12:28:20;21.60;78.50
913;DHT22;443;51.448;7.028;2023-06-22T12:30:46;21.60;78.90
913;DHT22;443;51.448;7.028;2023-06-22T12:33:13;21.60;78.10
913;DHT22;443;51.448;7.028;2023-06-22T12:35:41;21.70;78.20
913;DHT22;443;51.448;7.028;2023-06-22T12:38:08;21.60;78.10
913;DHT22;443;51.448;7.028;2023-06-22T12:40:35;21.60;78.20
913;DHT22;443;51.448;7.028;2023-06-22T12:43:02;21.70;78.30
913;DHT22;443;51.448;7.028;2023-06-22T12:45:28;21.60;78.10
913;DHT22;443;51.448;7.028;2023-06-22T12:47:59;21.60;78.20
913;DHT22;443;51.448;7.028;2023-06-22T12:50:26;21.60;78.30
913;DHT22;443;51.448;7.028;2023-06-22T12:52:54;21.60;78.00
913;DHT22;443;51.448;7.028;2023-06-22T12:55:20;21.60;78.00
913;DHT22;443;51.448;7.028;2023-06-22T12:57:47;21.60;78.00
913;DHT22;443;51.448;7.028;2023-06-22T13:00:15;21.60;77.90
913;DHT22;443;51.448;7.028;2023-06-22T13:02:42;21.60;77.90
913;DHT22;443;51.448;7.028;2023-06-22T13:05:09;21.60;77.80
913;DHT22;443;51.448;7.028;2023-06-22T13:07:35;21.70;78.00
913;DHT22;443;51.448;7.028;2023-06-22T13:10:05;21.60;77.90
913;DHT22;443;51.448;7.028;2023-06-22T13:12:31;21.60;78.00
913;DHT22;443;51.448;7.028;2023-06-22T13:14:58;21.60;77.90
913;DHT22;443;51.448;7.028;2023-06-22T13:17:25;21.60;78.30
913;DHT22;443;51.448;7.028;2023-06-22T13:19:52;21.60;78.10
913;DHT22;443;51.448;7.028;2023-06-22T13:22:27;21.60;78.10
913;DHT22;443;51.448;7.028;2023-06-22T13:24:55;21.60;78.20
913;DHT22;443;51.448;7.028;2023-06-22T13:27:23;21.60;78.10
913;DHT22;443;51.448;7.028;2023-06-22T13:29:50;21.60;78.60
913;DHT22;443;51.448;7.028;2023-06-22T13:32:17;21.60;78.10
913;DHT22;443;51.448;7.028;2023-06-22T13:34:44;21.60;78.20
913;DHT22;443;51.448;7.028;2023-06-22T13:37:10;21.60;78.10
913;DHT22;443;51.448;7.028;2023-06-22T13:39:37;21.60;78.20
913;DHT22;443;51.448;7.028;2023-06-22T13:42:05;21.60;78.10
913;DHT22;443;51.448;7.028;2023-06-22T13:44:33;21.60;78.30
913;DHT22;443;51.448;7.028;2023-06-22T13:47:00;21.60;78.20
913;DHT22;443;51.448;7.028;2023-06-22T13:49:26;21.60;78.50
913;DHT22;443;51.448;7.028;2023-06-22T13:51:53;21.60;78.30
913;DHT22;443;51.448;7.028;2023-06-22T13:54:20;21.60;78.20
913;DHT22;443;51.448;7.028;2023-06-22T13:56:47;21.60;78.20
913;DHT22;443;51.448;7.028;2023-06-22T13:59:13;21.60;78.30
913;DHT22;443;51.448;7.028;2023-06-22T14:01:41;21.60;78.30
913;DHT22;443;51.448;7.028;2023-06-22T14:04:08;21.60;78.20
913;DHT22;443;51.448;7.028;2023-06-22T14:06:35;21.60;78.20
913;DHT22;443;51.448;7.028;2023-06-22T14:09:02;21.60;78.30
913;DHT22;443;51.448;7.028;2023-06-22T14:11:29;21.60;78.30
913;DHT22;443;51.448;7.028;2023-06-22T14:13:55;21.60;79.30
913;DHT22;443;51.448;7.028;2023-06-22T14:16:22;21.60;78.60
913;DHT22;443;51.448;7.028;2023-06-22T14:18:50;21.60;78.60
913;DHT22;443;51.448;7.028;2023-06-22T14:21:17;21.60;78.40
913;DHT22;443;51.448;7.028;2023-06-22T14:23:44;21.60;78.50
913;DHT22;443;51.448;7.028;2023-06-22T14:26:14;21.60;78.80
913;DHT22;443;51.448;7.028;2023-06-22T14:28:43;21.60;78.80
913;DHT22;443;51.448;7.028;2023-06-22T14:31:12;21.60;78.50
913;DHT22;443;51.448;7.028;2023-06-22T14:33:39;21.60;78.50
913;DHT22;443;51.448;7.028;2023-06-22T14:36:07;21.60;78.40
913;DHT22;443;51.448;7.028;2023-06-22T14:38:34;21.60;78.30
913;DHT22;443;51.448;7.028;2023-06-22T14:41:01;21.60;78.40
913;DHT22;443;51.448;7.028;2023-06-22T14:43:28;21.60;78.60
913;DHT22;443;51.448;7.028;2023-06-22T14:45:54;21.60;78.40
913;DHT22;443;51.448;7.028;2023-06-22T14:48:21;21.60;78.50
913;DHT22;443;51.448;7.028;2023-06-22T14:50:48;21.60;78.60
913;DHT22;443;51.448;7.028;2023-06-22T14:53:16;21.60;78.50
913;DHT22;443;51.448;7.028;2023-06-22T14:55:43;21.60;78.50
913;DHT22;443;51.448;7.028;2023-06-22T14:58:10;21.60;78.60
913;DHT22;443;51.448;7.028;2023-06-22T15:00:37;21.60;78.50
913;DHT22;443;51.448;7.028;2023-06-22T15:03:04;21.60;78.80
913;DHT22;443;51.448;7.028;2023-06-22T15:05:33;21.60;78.70
913;DHT22;443;51.448;7.028;2023-06-22T15:07:59;21.60;78.60
913;DHT22;443;51.448;7.028;2023-06-22T15:10:27;21.70;78.80
913;DHT22;443;51.448;7.028;2023-06-22T15:12:54;21.70;78.60
913;DHT22;443;51.448;7.028;2023-06-22T15:15:21;21.70;78.40
913;DHT22;443;51.448;7.028;2023-06-22T15:17:48;21.70;78.50
913;DHT22;443;51.448;7.028;2023-06-22T15:20:14;21.70;78.40
913;DHT22;443;51.448;7.028;2023-06-22T15:22:41;21.60;78.40
913;DHT22;443;51.448;7.028;2023-06-22T15:25:08;21.70;78.50
913;DHT22;443;51.448;7.028;2023-06-22T15:27:37;21.60;78.50
913;DHT22;443;51.448;7.028;2023-06-22T15:30:05;21.60;78.40
913;DHT22;443;51.448;7.028;2023-06-22T15:32:32;21.60;78.50
913;DHT22;443;51.448;7.028;2023-06-22T15:34:59;21.60;78.60
913;DHT22;443;51.448;7.028;2023-06-22T15:37:26;21.60;78.90
913;DHT22;443;51.448;7.028;2023-06-22T15:39:52;21.60;78.70
913;DHT22;443;51.448;7.028;2023-06-22T15:42:21;21.60;80.10
913;DHT22;443;51.448;7.028;2023-06-22T15:44:49;21.60;78.60
913;DHT22;443;51.448;7.028;2023-06-22T15:47:16;21.60;78.70
913;DHT22;443;51.448;7.028;2023-06-22T15:49:47;21.60;78.60
913;DHT22;443;51.448;7.028;2023-06-22T15:52:13;21.60;78.90
913;DHT22;443;51.448;7.028;2023-06-22T15:54:43;21.60;79.10
913;DHT22;443;51.448;7.028;2023-06-22T15:57:10;21.50;79.10
913;DHT22;443;51.448;7.028;2023-06-22T15:59:38;21.60;80.00
913;DHT22;443;51.448;7.028;2023-06-22T16:02:07;21.50;79.90
913;DHT22;443;51.448;7.028;2023-06-22T16:04:33;21.50;79.10
913;DHT22;443;51.448;7.028;2023-06-22T16:07:00;21.60;79.50
913;DHT22;443;51.448;7.028;2023-06-22T16:09:27;21.50;79.30
913;DHT22;443;51.448;7.028;2023-06-22T16:11:55;21.50;79.70
913;DHT22;443;51.448;7.028;2023-06-22T16:14:22;21.50;79.80
913;DHT22;443;51.448;7.028;2023-06-22T16:16:49;21.50;79.60
913;DHT22;443;51.448;7.028;2023-06-22T16:19:17;21.50;79.80
913;DHT22;443;51.448;7.028;2023-06-22T16:21:44;21.50;80.00
913;DHT22;443;51.448;7.028;2023-06-22T16:24:10;21.50;79.70
913;DHT22;443;51.448;7.028;2023-06-22T16:26:39;21.60;79.50
913;DHT22;443;51.448;7.028;2023-06-22T16:29:06;21.50;79.70
913;DHT22;443;51.448;7.028;2023-06-22T16:31:33;21.50;79.80
913;DHT22;443;51.448;7.028;2023-06-22T16:34:01;21.50;80.20
913;DHT22;443;51.448;7.028;2023-06-22T16:36:29;21.50;79.40
913;DHT22;443;51.448;7.028;2023-06-22T16:38:56;21.50;79.90